aviador You're here:

KCUB Decoded Metar

COLUMBIA-OWENS in SC, USA
Report Time2017-07-21 03:53:00
UTC Time2017-07-21 04:27:30
Flight Rules vfr VFR
Wind180° at 03 kt
W.Decomp.*RWY 13: 1.7 kt HW 2.5 kt RCW
W.Rank180° ranks 7
Current wind is below 180° avg. (5.4)
Visibility9999 m
Phenomena:N/A
Clouds:N/A
Expected CloudBase > 1,600 ft AGL from Temp-Dew spread
CeilingNone
Temp26°C (ISA +11)
Dew Point22°C (79% RH)
QNH1017 hPa
Density Alt1,713 ft
Elevation184 ft
Report Wrong Elevation
Raw Report
METAR KCUB 210353Z AUTO 18003KT 10SM CLR 26/22 A3004 RMK AO2 SLP169
T02610217=

Extra information for KCUB:More info

Metar Taf Metar & Taf Last 4 Metars F.Rules Stats Wind Profile Meteogram Temp Stats Airport Information Weather charts Add Link Nearby VenuesMetar ALERT Operation Metar Decoded Social comments

AIRNAV info for KCUB